ANZ103 NZAA-YSSY
Flight info
| Callsign | ANZ103 |
|---|---|
| Flight time | 2h 59m |
| Altitude | 36000 |
| Route | MADEP N774 MARLN |
| Aircraft | B77W/H-SDE1E2E3FGHIJ2J3J4J5M1RWXY/LB1D1 |
Departure
| Time | 2026-05-06 01:36 |
|---|---|
| Airport | Auckland International Airport (NZAA) |
Arrival
| Time | 2026-05-06 04:35 |
|---|---|
| Airport | Sydney Kingsford Smith International Airport (YSSY) |
| Time | Latitude | Longitude | Altitude | Speed | Heading |
|---|---|---|---|---|---|
| 2026-05-06 01:12 | -37.00760 | 174.78271 | 30 ft | 0 kts | 298° |
| 2026-05-06 01:23 | -37.00763 | 174.78276 | 30 ft | 3 kts | 298° |
| 2026-05-06 01:23 | -37.00775 | 174.78306 | 30 ft | 4 kts | 298° |
| 2026-05-06 01:23 | -37.00785 | 174.78331 | 30 ft | 4 kts | 286° |
| 2026-05-06 01:23 | -37.00788 | 174.78358 | 29 ft | 4 kts | 255° |
| 2026-05-06 01:24 | -37.00781 | 174.78377 | 26 ft | 4 kts | 212° |
| 2026-05-06 01:24 | -37.00758 | 174.78389 | 29 ft | 4 kts | 195° |
| 2026-05-06 01:24 | -37.00733 | 174.78399 | 29 ft | 3 kts | 204° |
| 2026-05-06 01:24 | -37.00729 | 174.78401 | 30 ft | 0 kts | 206° |
| 2026-05-06 01:27 | -37.00767 | 174.78385 | 28 ft | 11 kts | 190° |
| 2026-05-06 01:27 | -37.00841 | 174.78372 | 30 ft | 11 kts | 185° |
| 2026-05-06 01:27 | -37.00916 | 174.78363 | 30 ft | 11 kts | 186° |
| 2026-05-06 01:27 | -37.00991 | 174.78374 | 30 ft | 11 kts | 163° |
| 2026-05-06 01:28 | -37.01065 | 174.78362 | 30 ft | 11 kts | 208° |
| 2026-05-06 01:28 | -37.01107 | 174.78280 | 30 ft | 11 kts | 251° |
| 2026-05-06 01:28 | -37.01113 | 174.78261 | 30 ft | 11 kts | 251° |
| 2026-05-06 01:28 | -37.01131 | 174.78196 | 30 ft | 11 kts | 251° |
| 2026-05-06 01:29 | -37.01157 | 174.78102 | 30 ft | 11 kts | 251° |
| 2026-05-06 01:29 | -37.01182 | 174.78009 | 30 ft | 11 kts | 251° |
| 2026-05-06 01:29 | -37.01210 | 174.77910 | 30 ft | 15 kts | 251° |
| 2026-05-06 01:29 | -37.01259 | 174.77726 | 30 ft | 28 kts | 251° |
| 2026-05-06 01:30 | -37.01324 | 174.77496 | 30 ft | 28 kts | 251° |
| 2026-05-06 01:30 | -37.01379 | 174.77295 | 30 ft | 17 kts | 251° |
| 2026-05-06 01:30 | -37.01414 | 174.77167 | 30 ft | 7 kts | 251° |
| 2026-05-06 01:30 | -37.01441 | 174.77118 | 30 ft | 7 kts | 215° |
| 2026-05-06 01:31 | -37.01471 | 174.77105 | 30 ft | 0 kts | 191° |
| 2026-05-06 01:34 | -37.01485 | 174.77102 | 30 ft | 7 kts | 191° |
| 2026-05-06 01:34 | -37.01544 | 174.77088 | 30 ft | 9 kts | 190° |
| 2026-05-06 01:34 | -37.01604 | 174.77092 | 30 ft | 9 kts | 146° |
| 2026-05-06 01:34 | -37.01609 | 174.77168 | 30 ft | 8 kts | 70° |
| 2026-05-06 01:35 | -37.01608 | 174.77173 | 30 ft | 0 kts | 69° |
| 2026-05-06 01:35 | -37.01607 | 174.77174 | 30 ft | 1 kts | 69° |
| 2026-05-06 01:35 | -37.01559 | 174.77344 | 30 ft | 53 kts | 71° |
| 2026-05-06 01:35 | -37.01341 | 174.78120 | 30 ft | 136 kts | 70° |
| 2026-05-06 01:36 | -37.00969 | 174.79509 | 202 ft | 185 kts | 68° |
| 2026-05-06 01:36 | -37.00545 | 174.81023 | 1064 ft | 184 kts | 69° |
| 2026-05-06 01:36 | -37.00123 | 174.82534 | 2041 ft | 183 kts | 68° |
| 2026-05-06 01:36 | -36.99677 | 174.84123 | 2419 ft | 206 kts | 68° |
| 2026-05-06 01:37 | -36.99172 | 174.85919 | 2740 ft | 229 kts | 68° |
| 2026-05-06 01:37 | -36.98639 | 174.87821 | 3465 ft | 235 kts | 68° |
| 2026-05-06 01:37 | -36.98002 | 174.89717 | 4015 ft | 240 kts | 51° |
| 2026-05-06 01:37 | -36.96659 | 174.90943 | 4673 ft | 245 kts | 17° |
| 2026-05-06 01:38 | -36.94972 | 174.91079 | 5467 ft | 251 kts | 351° |
| 2026-05-06 01:38 | -36.93349 | 174.90228 | 6268 ft | 260 kts | 325° |
| 2026-05-06 01:38 | -36.92193 | 174.88462 | 6996 ft | 271 kts | 294° |
| 2026-05-06 01:38 | -36.91856 | 174.86121 | 7716 ft | 276 kts | 276° |
| 2026-05-06 01:39 | -36.91774 | 174.83696 | 8424 ft | 282 kts | 275° |
| 2026-05-06 01:39 | -36.91721 | 174.81243 | 9280 ft | 283 kts | 274° |
| 2026-05-06 01:39 | -36.91671 | 174.78776 | 10117 ft | 285 kts | 274° |
| 2026-05-06 01:39 | -36.91616 | 174.76258 | 10633 ft | 299 kts | 274° |
| 2026-05-06 01:40 | -36.91549 | 174.73570 | 10822 ft | 325 kts | 274° |
| 2026-05-06 01:40 | -36.91469 | 174.70627 | 11011 ft | 350 kts | 274° |
| 2026-05-06 01:40 | -36.91381 | 174.67527 | 11433 ft | 367 kts | 274° |
| 2026-05-06 01:40 | -36.91290 | 174.64334 | 12195 ft | 375 kts | 274° |
| 2026-05-06 01:41 | -36.91194 | 174.61044 | 13092 ft | 381 kts | 274° |
| 2026-05-06 01:41 | -36.91092 | 174.57729 | 14142 ft | 384 kts | 274° |
| 2026-05-06 01:41 | -36.90987 | 174.54373 | 15008 ft | 389 kts | 274° |
| 2026-05-06 01:41 | -36.90881 | 174.50990 | 15962 ft | 391 kts | 274° |
| 2026-05-06 01:42 | -36.90770 | 174.47572 | 16872 ft | 395 kts | 274° |
| 2026-05-06 01:42 | -36.90657 | 174.44122 | 17699 ft | 401 kts | 274° |
| 2026-05-06 01:42 | -36.90541 | 174.40618 | 18609 ft | 404 kts | 274° |
| 2026-05-06 01:42 | -36.90425 | 174.37129 | 19363 ft | 408 kts | 273° |
| 2026-05-06 01:43 | -36.90304 | 174.33552 | 20086 ft | 413 kts | 273° |
| 2026-05-06 01:43 | -36.90182 | 174.29950 | 20806 ft | 417 kts | 272° |
| 2026-05-06 01:43 | -36.90058 | 174.26307 | 21521 ft | 422 kts | 272° |
| 2026-05-06 01:43 | -36.89932 | 174.22620 | 22153 ft | 428 kts | 271° |
| 2026-05-06 01:44 | -36.89801 | 174.18863 | 22802 ft | 434 kts | 271° |
| 2026-05-06 01:44 | -36.89669 | 174.15084 | 23493 ft | 437 kts | 271° |
| 2026-05-06 01:44 | -36.89534 | 174.11273 | 24140 ft | 441 kts | 271° |
| 2026-05-06 01:44 | -36.89397 | 174.07425 | 24715 ft | 445 kts | 270° |
| 2026-05-06 01:45 | -36.89259 | 174.03603 | 25299 ft | 447 kts | 270° |
| 2026-05-06 01:45 | -36.89090 | 173.99708 | 25876 ft | 450 kts | 272° |
| 2026-05-06 01:45 | -36.88670 | 173.95812 | 26436 ft | 455 kts | 277° |
| 2026-05-06 01:45 | -36.88101 | 173.91908 | 26955 ft | 458 kts | 278° |
| 2026-05-06 01:46 | -36.87514 | 173.87978 | 27480 ft | 462 kts | 277° |
| 2026-05-06 01:46 | -36.86925 | 173.84023 | 27972 ft | 465 kts | 277° |
| 2026-05-06 01:46 | -36.86339 | 173.80045 | 28488 ft | 467 kts | 277° |
| 2026-05-06 01:46 | -36.85755 | 173.76042 | 28961 ft | 470 kts | 277° |
| 2026-05-06 01:47 | -36.85171 | 173.72018 | 29407 ft | 473 kts | 277° |
| 2026-05-06 01:47 | -36.84585 | 173.67967 | 29832 ft | 475 kts | 277° |
| 2026-05-06 01:47 | -36.83994 | 173.63893 | 30283 ft | 477 kts | 277° |
| 2026-05-06 01:47 | -36.83408 | 173.59865 | 30786 ft | 475 kts | 277° |
| 2026-05-06 01:48 | -36.82818 | 173.55823 | 31316 ft | 472 kts | 277° |
| 2026-05-06 01:48 | -36.82230 | 173.51809 | 31833 ft | 470 kts | 277° |
| 2026-05-06 01:48 | -36.81640 | 173.47783 | 32309 ft | 469 kts | 277° |
| 2026-05-06 01:48 | -36.81054 | 173.43787 | 32764 ft | 467 kts | 277° |
| 2026-05-06 01:49 | -36.80468 | 173.39809 | 33243 ft | 465 kts | 277° |
| 2026-05-06 01:49 | -36.79883 | 173.35847 | 33716 ft | 464 kts | 277° |
| 2026-05-06 01:49 | -36.79301 | 173.31892 | 34185 ft | 462 kts | 277° |
| 2026-05-06 01:49 | -36.78722 | 173.27958 | 34602 ft | 460 kts | 277° |
| 2026-05-06 01:50 | -36.78145 | 173.24036 | 34956 ft | 459 kts | 277° |
| 2026-05-06 01:50 | -36.77568 | 173.20122 | 35291 ft | 458 kts | 277° |
| 2026-05-06 01:50 | -36.76991 | 173.16218 | 35625 ft | 458 kts | 277° |
| 2026-05-06 01:50 | -36.76421 | 173.12369 | 35941 ft | 457 kts | 277° |
| 2026-05-06 01:51 | -36.75843 | 173.08478 | 36254 ft | 457 kts | 277° |
| 2026-05-06 01:51 | -36.75261 | 173.04567 | 36303 ft | 461 kts | 277° |
| 2026-05-06 01:51 | -36.74085 | 172.96698 | 36335 ft | 459 kts | 277° |
| 2026-05-06 01:52 | -36.72915 | 172.88926 | 36335 ft | 453 kts | 277° |
| 2026-05-06 01:52 | -36.71750 | 172.81202 | 36342 ft | 452 kts | 277° |
| 2026-05-06 01:53 | -36.70583 | 172.73499 | 36342 ft | 452 kts | 278° |
| 2026-05-06 01:53 | -36.69418 | 172.65846 | 36342 ft | 452 kts | 278° |
| 2026-05-06 01:54 | -36.68240 | 172.58143 | 36335 ft | 453 kts | 278° |
| 2026-05-06 01:54 | -36.67053 | 172.50419 | 36336 ft | 453 kts | 278° |
| 2026-05-06 01:55 | -36.65869 | 172.42752 | 36343 ft | 453 kts | 278° |
| 2026-05-06 01:55 | -36.64671 | 172.35023 | 36344 ft | 454 kts | 278° |
| 2026-05-06 01:56 | -36.63467 | 172.27295 | 36336 ft | 453 kts | 278° |
| 2026-05-06 01:56 | -36.62270 | 172.19640 | 36329 ft | 453 kts | 278° |
| 2026-05-06 01:57 | -36.61060 | 172.11944 | 36327 ft | 453 kts | 278° |
| 2026-05-06 01:57 | -36.59848 | 172.04261 | 36326 ft | 452 kts | 278° |
| 2026-05-06 01:58 | -36.58632 | 171.96593 | 36331 ft | 451 kts | 278° |
| 2026-05-06 01:58 | -36.57413 | 171.88936 | 36331 ft | 451 kts | 278° |
| 2026-05-06 01:59 | -36.56190 | 171.81286 | 36321 ft | 450 kts | 278° |
| 2026-05-06 01:59 | -36.54970 | 171.73690 | 36319 ft | 450 kts | 278° |
| 2026-05-06 02:00 | -36.53738 | 171.66047 | 36323 ft | 449 kts | 278° |
| 2026-05-06 02:00 | -36.52514 | 171.58485 | 36320 ft | 449 kts | 278° |
| 2026-05-06 02:01 | -36.51277 | 171.50883 | 36316 ft | 448 kts | 278° |
| 2026-05-06 02:01 | -36.50036 | 171.43283 | 36313 ft | 448 kts | 278° |
| 2026-05-06 02:02 | -36.49004 | 171.36985 | 36313 ft | 447 kts | 278° |
| 2026-05-06 02:02 | -36.47553 | 171.28175 | 36313 ft | 447 kts | 278° |
| 2026-05-06 02:03 | -36.46304 | 171.20619 | 36303 ft | 446 kts | 278° |
| 2026-05-06 02:03 | -36.45254 | 171.14294 | 36308 ft | 446 kts | 278° |
| 2026-05-06 02:04 | -36.43998 | 171.06754 | 36304 ft | 445 kts | 279° |
| 2026-05-06 02:04 | -36.42746 | 170.99271 | 36304 ft | 445 kts | 279° |
| 2026-05-06 02:05 | -36.41484 | 170.91753 | 36303 ft | 444 kts | 279° |
| 2026-05-06 02:05 | -36.40218 | 170.84245 | 36303 ft | 444 kts | 279° |
| 2026-05-06 02:06 | -36.38950 | 170.76751 | 36299 ft | 443 kts | 279° |
| 2026-05-06 02:06 | -36.38139 | 170.69258 | 36296 ft | 440 kts | 272° |
| 2026-05-06 02:07 | -36.37690 | 170.61684 | 36297 ft | 440 kts | 272° |
| 2026-05-06 02:07 | -36.37234 | 170.54109 | 36293 ft | 440 kts | 272° |
| 2026-05-06 02:08 | -36.36758 | 170.46533 | 36287 ft | 440 kts | 272° |
| 2026-05-06 02:08 | -36.36270 | 170.38962 | 36290 ft | 440 kts | 273° |
| 2026-05-06 02:09 | -36.35779 | 170.31432 | 36282 ft | 440 kts | 273° |
| 2026-05-06 02:09 | -36.35280 | 170.23856 | 36279 ft | 440 kts | 273° |
| 2026-05-06 02:10 | -36.34776 | 170.16287 | 36278 ft | 440 kts | 273° |
| 2026-05-06 02:10 | -36.34267 | 170.08699 | 36277 ft | 440 kts | 273° |
| 2026-05-06 02:11 | -36.33754 | 170.01125 | 36277 ft | 440 kts | 273° |
| 2026-05-06 02:11 | -36.33237 | 169.93560 | 36271 ft | 440 kts | 273° |
| 2026-05-06 02:12 | -36.32717 | 169.86031 | 36267 ft | 440 kts | 273° |
| 2026-05-06 02:12 | -36.32190 | 169.78467 | 36268 ft | 440 kts | 274° |
| 2026-05-06 02:13 | -36.31658 | 169.70906 | 36266 ft | 440 kts | 274° |
| 2026-05-06 02:13 | -36.31122 | 169.63352 | 36263 ft | 440 kts | 274° |
| 2026-05-06 02:14 | -36.30580 | 169.55773 | 36261 ft | 440 kts | 274° |
| 2026-05-06 02:14 | -36.30037 | 169.48251 | 36258 ft | 441 kts | 274° |
| 2026-05-06 02:15 | -36.29485 | 169.40680 | 36257 ft | 441 kts | 274° |
| 2026-05-06 02:15 | -36.28928 | 169.33107 | 36252 ft | 441 kts | 274° |
| 2026-05-06 02:16 | -36.28366 | 169.25529 | 36251 ft | 441 kts | 274° |
| 2026-05-06 02:16 | -36.27803 | 169.17992 | 36251 ft | 441 kts | 274° |
| 2026-05-06 02:17 | -36.27232 | 169.10425 | 36247 ft | 441 kts | 274° |
| 2026-05-06 02:17 | -36.26656 | 169.02858 | 36241 ft | 441 kts | 275° |
| 2026-05-06 02:18 | -36.26076 | 168.95288 | 36238 ft | 441 kts | 275° |
| 2026-05-06 02:18 | -36.25494 | 168.87771 | 36235 ft | 441 kts | 275° |
| 2026-05-06 02:19 | -36.24905 | 168.80212 | 36233 ft | 441 kts | 275° |
| 2026-05-06 02:19 | -36.24311 | 168.72656 | 36231 ft | 441 kts | 275° |
| 2026-05-06 02:20 | -36.23409 | 168.61302 | 36230 ft | 441 kts | 275° |
| 2026-05-06 02:21 | -36.22802 | 168.53737 | 36228 ft | 441 kts | 275° |
| 2026-05-06 02:21 | -36.22193 | 168.46218 | 36226 ft | 441 kts | 275° |
| 2026-05-06 02:22 | -36.21577 | 168.38651 | 36224 ft | 441 kts | 275° |
| 2026-05-06 02:22 | -36.20956 | 168.31093 | 36220 ft | 441 kts | 275° |
| 2026-05-06 02:23 | -36.20330 | 168.23531 | 36216 ft | 441 kts | 275° |
| 2026-05-06 02:23 | -36.19699 | 168.15977 | 36213 ft | 441 kts | 275° |
| 2026-05-06 02:24 | -36.19063 | 168.08414 | 36213 ft | 441 kts | 276° |
| 2026-05-06 02:24 | -36.18426 | 168.00894 | 36213 ft | 441 kts | 276° |
| 2026-05-06 02:25 | -36.17781 | 167.93332 | 36209 ft | 441 kts | 276° |
| 2026-05-06 02:25 | -36.17130 | 167.85770 | 36207 ft | 441 kts | 276° |
| 2026-05-06 02:26 | -36.16475 | 167.78205 | 36204 ft | 441 kts | 276° |
| 2026-05-06 02:26 | -36.15818 | 167.70679 | 36204 ft | 441 kts | 276° |
| 2026-05-06 02:27 | -36.15153 | 167.63125 | 36201 ft | 441 kts | 276° |
| 2026-05-06 02:27 | -36.14485 | 167.55575 | 36194 ft | 441 kts | 276° |
| 2026-05-06 02:28 | -36.13811 | 167.48023 | 36196 ft | 441 kts | 276° |
| 2026-05-06 02:28 | -36.13132 | 167.40473 | 36193 ft | 441 kts | 276° |
| 2026-05-06 02:29 | -36.12449 | 167.32921 | 36196 ft | 441 kts | 276° |
| 2026-05-06 02:29 | -36.11767 | 167.25442 | 36191 ft | 440 kts | 276° |
| 2026-05-06 02:30 | -36.11078 | 167.17933 | 36189 ft | 439 kts | 276° |
| 2026-05-06 02:30 | -36.10385 | 167.10433 | 36179 ft | 438 kts | 276° |
| 2026-05-06 02:31 | -36.09689 | 167.02953 | 36184 ft | 437 kts | 277° |
| 2026-05-06 02:31 | -36.08988 | 166.95471 | 36178 ft | 437 kts | 277° |
| 2026-05-06 02:32 | -36.08288 | 166.88059 | 36177 ft | 436 kts | 277° |
| 2026-05-06 02:32 | -36.07582 | 166.80621 | 36172 ft | 435 kts | 277° |
| 2026-05-06 02:33 | -36.06869 | 166.73168 | 36170 ft | 435 kts | 277° |
| 2026-05-06 02:33 | -36.06634 | 166.70712 | 36173 ft | 435 kts | 277° |
| 2026-05-06 02:34 | -36.05440 | 166.58364 | 36165 ft | 434 kts | 277° |
| 2026-05-06 02:34 | -36.04717 | 166.50946 | 36168 ft | 434 kts | 277° |
| 2026-05-06 02:35 | -36.03989 | 166.43531 | 36156 ft | 434 kts | 278° |
| 2026-05-06 02:35 | -36.03257 | 166.36123 | 36153 ft | 434 kts | 278° |
| 2026-05-06 02:36 | -36.02521 | 166.28715 | 36152 ft | 434 kts | 278° |
| 2026-05-06 02:36 | -36.01780 | 166.21307 | 36153 ft | 434 kts | 278° |
| 2026-05-06 02:37 | -36.01039 | 166.13949 | 36146 ft | 434 kts | 278° |
| 2026-05-06 02:37 | -36.00288 | 166.06542 | 36146 ft | 434 kts | 278° |
| 2026-05-06 02:38 | -35.99535 | 165.99147 | 36147 ft | 434 kts | 278° |
| 2026-05-06 02:38 | -35.98776 | 165.91752 | 36142 ft | 434 kts | 278° |
| 2026-05-06 02:39 | -35.98012 | 165.84353 | 36141 ft | 434 kts | 279° |
| 2026-05-06 02:39 | -35.97244 | 165.76955 | 36139 ft | 434 kts | 279° |
| 2026-05-06 02:40 | -35.96472 | 165.69563 | 36131 ft | 434 kts | 279° |
| 2026-05-06 02:40 | -35.95700 | 165.62215 | 36128 ft | 434 kts | 279° |
| 2026-05-06 02:41 | -35.94918 | 165.54828 | 36126 ft | 434 kts | 279° |
| 2026-05-06 02:41 | -35.94133 | 165.47445 | 36127 ft | 434 kts | 279° |
| 2026-05-06 02:42 | -35.93342 | 165.40054 | 36125 ft | 434 kts | 279° |
| 2026-05-06 02:42 | -35.92549 | 165.32685 | 36123 ft | 434 kts | 279° |
| 2026-05-06 02:43 | -35.91750 | 165.25304 | 36115 ft | 433 kts | 279° |
| 2026-05-06 02:43 | -35.90951 | 165.17969 | 36112 ft | 433 kts | 280° |
| 2026-05-06 02:44 | -35.90144 | 165.10599 | 36106 ft | 434 kts | 280° |
| 2026-05-06 02:44 | -35.89331 | 165.03219 | 36108 ft | 434 kts | 280° |
| 2026-05-06 02:45 | -35.88515 | 164.95857 | 36111 ft | 434 kts | 280° |
| 2026-05-06 02:45 | -35.87693 | 164.88480 | 36108 ft | 434 kts | 280° |
| 2026-05-06 02:46 | -35.86866 | 164.81103 | 36108 ft | 434 kts | 280° |
| 2026-05-06 02:46 | -35.86034 | 164.73725 | 36092 ft | 435 kts | 281° |
| 2026-05-06 02:47 | -35.85203 | 164.66391 | 36104 ft | 435 kts | 281° |
| 2026-05-06 02:47 | -35.84360 | 164.58988 | 36084 ft | 435 kts | 281° |
| 2026-05-06 02:48 | -35.83513 | 164.51598 | 36089 ft | 435 kts | 281° |
| 2026-05-06 02:48 | -35.82659 | 164.44194 | 36086 ft | 436 kts | 281° |
| 2026-05-06 02:49 | -35.81946 | 164.38039 | 36086 ft | 436 kts | 281° |
| 2026-05-06 02:49 | -35.80943 | 164.29426 | 36076 ft | 437 kts | 281° |
| 2026-05-06 02:50 | -35.80221 | 164.23256 | 36080 ft | 437 kts | 281° |
| 2026-05-06 02:50 | -35.79348 | 164.15842 | 36077 ft | 437 kts | 282° |
| 2026-05-06 02:51 | -35.78471 | 164.08429 | 36077 ft | 438 kts | 282° |
| 2026-05-06 02:51 | -35.77441 | 163.99782 | 36078 ft | 439 kts | 282° |
| 2026-05-06 02:52 | -35.76699 | 163.93582 | 36068 ft | 440 kts | 282° |
| 2026-05-06 02:52 | -35.75799 | 163.86097 | 36060 ft | 441 kts | 282° |
| 2026-05-06 02:53 | -35.74896 | 163.78619 | 36067 ft | 441 kts | 282° |
| 2026-05-06 02:53 | -35.73992 | 163.71188 | 36060 ft | 441 kts | 282° |
| 2026-05-06 02:54 | -35.73079 | 163.63711 | 36064 ft | 442 kts | 282° |
| 2026-05-06 02:54 | -35.72160 | 163.56229 | 36063 ft | 442 kts | 283° |
| 2026-05-06 02:55 | -35.71234 | 163.48729 | 36057 ft | 443 kts | 283° |
| 2026-05-06 02:55 | -35.70303 | 163.41234 | 36059 ft | 443 kts | 283° |
| 2026-05-06 02:56 | -35.69374 | 163.33787 | 36055 ft | 443 kts | 283° |
| 2026-05-06 02:56 | -35.68434 | 163.26290 | 36056 ft | 443 kts | 283° |
| 2026-05-06 02:57 | -35.67491 | 163.18805 | 36058 ft | 443 kts | 283° |
| 2026-05-06 02:57 | -35.66539 | 163.11293 | 36053 ft | 444 kts | 283° |
| 2026-05-06 02:58 | -35.65589 | 163.03829 | 36052 ft | 444 kts | 283° |
| 2026-05-06 02:58 | -35.64626 | 162.96314 | 36048 ft | 444 kts | 283° |
| 2026-05-06 02:59 | -35.63656 | 162.88804 | 36048 ft | 444 kts | 283° |
| 2026-05-06 02:59 | -35.62685 | 162.81330 | 36047 ft | 444 kts | 283° |
| 2026-05-06 03:00 | -35.61708 | 162.73832 | 36043 ft | 444 kts | 283° |
| 2026-05-06 03:00 | -35.60725 | 162.66329 | 36045 ft | 444 kts | 283° |
| 2026-05-06 03:01 | -35.59739 | 162.58836 | 36046 ft | 444 kts | 283° |
| 2026-05-06 03:01 | -35.58747 | 162.51338 | 36049 ft | 445 kts | 283° |
| 2026-05-06 03:02 | -35.57755 | 162.43877 | 36039 ft | 445 kts | 283° |
| 2026-05-06 03:02 | -35.56753 | 162.36371 | 36038 ft | 445 kts | 283° |
| 2026-05-06 03:03 | -35.55745 | 162.28862 | 36046 ft | 445 kts | 283° |
| 2026-05-06 03:03 | -35.54737 | 162.21391 | 36041 ft | 446 kts | 283° |
| 2026-05-06 03:04 | -35.53718 | 162.13871 | 36043 ft | 447 kts | 283° |
| 2026-05-06 03:04 | -35.52693 | 162.06345 | 36041 ft | 447 kts | 283° |
| 2026-05-06 03:05 | -35.51662 | 161.98813 | 36041 ft | 447 kts | 283° |
| 2026-05-06 03:05 | -35.50627 | 161.91282 | 36042 ft | 447 kts | 283° |
| 2026-05-06 03:06 | -35.49586 | 161.83752 | 36044 ft | 447 kts | 283° |
| 2026-05-06 03:06 | -35.48550 | 161.76284 | 36036 ft | 446 kts | 283° |
| 2026-05-06 03:07 | -35.47502 | 161.68771 | 36040 ft | 446 kts | 283° |
| 2026-05-06 03:07 | -35.46452 | 161.61275 | 36035 ft | 445 kts | 283° |
| 2026-05-06 03:08 | -35.45397 | 161.53787 | 36050 ft | 445 kts | 282° |
| 2026-05-06 03:08 | -35.44339 | 161.46304 | 36047 ft | 444 kts | 282° |
| 2026-05-06 03:09 | -35.43279 | 161.38841 | 36037 ft | 444 kts | 282° |
| 2026-05-06 03:09 | -35.42215 | 161.31388 | 36040 ft | 443 kts | 282° |
| 2026-05-06 03:10 | -35.41155 | 161.23994 | 36039 ft | 443 kts | 282° |
| 2026-05-06 03:10 | -35.40084 | 161.16562 | 36038 ft | 442 kts | 282° |
| 2026-05-06 03:11 | -35.39009 | 161.09128 | 36045 ft | 442 kts | 282° |
| 2026-05-06 03:11 | -35.37933 | 161.01725 | 36044 ft | 441 kts | 282° |
| 2026-05-06 03:12 | -35.36852 | 160.94323 | 36045 ft | 441 kts | 282° |
| 2026-05-06 03:12 | -35.35769 | 160.86937 | 36046 ft | 440 kts | 282° |
| 2026-05-06 03:13 | -35.34690 | 160.79606 | 36046 ft | 439 kts | 282° |
| 2026-05-06 03:13 | -35.33598 | 160.72229 | 36051 ft | 439 kts | 282° |
| 2026-05-06 03:14 | -35.32507 | 160.64880 | 36050 ft | 438 kts | 282° |
| 2026-05-06 03:14 | -35.31410 | 160.57534 | 36052 ft | 438 kts | 282° |
| 2026-05-06 03:15 | -35.30313 | 160.50209 | 36055 ft | 437 kts | 282° |
| 2026-05-06 03:15 | -35.29211 | 160.42888 | 36058 ft | 437 kts | 283° |
| 2026-05-06 03:16 | -35.28104 | 160.35565 | 36059 ft | 436 kts | 283° |
| 2026-05-06 03:16 | -35.27003 | 160.28308 | 36062 ft | 436 kts | 283° |
| 2026-05-06 03:17 | -35.25891 | 160.21012 | 36060 ft | 436 kts | 283° |
| 2026-05-06 03:17 | -35.24774 | 160.13717 | 36061 ft | 435 kts | 283° |
| 2026-05-06 03:18 | -35.23656 | 160.06444 | 36062 ft | 435 kts | 283° |
| 2026-05-06 03:18 | -35.22532 | 159.99159 | 36063 ft | 435 kts | 283° |
| 2026-05-06 03:19 | -35.21412 | 159.91937 | 36068 ft | 434 kts | 283° |
| 2026-05-06 03:19 | -35.20281 | 159.84670 | 36065 ft | 434 kts | 283° |
| 2026-05-06 03:20 | -35.18579 | 159.73790 | 36070 ft | 434 kts | 283° |
| 2026-05-06 03:20 | -35.17439 | 159.66537 | 36069 ft | 434 kts | 283° |
| 2026-05-06 03:21 | -35.16295 | 159.59294 | 36069 ft | 434 kts | 283° |
| 2026-05-06 03:21 | -35.15156 | 159.52106 | 36070 ft | 434 kts | 283° |
| 2026-05-06 03:22 | -35.14004 | 159.44869 | 36070 ft | 434 kts | 283° |
| 2026-05-06 03:22 | -35.12849 | 159.37637 | 36072 ft | 434 kts | 283° |
| 2026-05-06 03:23 | -35.11688 | 159.30406 | 36075 ft | 434 kts | 283° |
| 2026-05-06 03:23 | -35.10524 | 159.23178 | 36075 ft | 434 kts | 283° |
| 2026-05-06 03:24 | -35.09356 | 159.15955 | 36075 ft | 434 kts | 283° |
| 2026-05-06 03:24 | -35.08182 | 159.08723 | 36073 ft | 434 kts | 283° |
| 2026-05-06 03:25 | -35.07013 | 159.01551 | 36076 ft | 434 kts | 283° |
| 2026-05-06 03:25 | -35.05831 | 158.94326 | 36076 ft | 434 kts | 283° |
| 2026-05-06 03:26 | -35.04646 | 158.87114 | 36079 ft | 434 kts | 283° |
| 2026-05-06 03:26 | -35.03456 | 158.79895 | 36082 ft | 433 kts | 283° |
| 2026-05-06 03:27 | -35.02263 | 158.72686 | 36080 ft | 433 kts | 283° |
| 2026-05-06 03:27 | -35.01065 | 158.65481 | 36079 ft | 433 kts | 283° |
| 2026-05-06 03:28 | -34.99864 | 158.58282 | 36086 ft | 433 kts | 283° |
| 2026-05-06 03:28 | -34.98659 | 158.51085 | 36082 ft | 433 kts | 284° |
| 2026-05-06 03:29 | -34.97452 | 158.43903 | 36083 ft | 432 kts | 284° |
| 2026-05-06 03:29 | -34.96242 | 158.36734 | 36086 ft | 432 kts | 284° |
| 2026-05-06 03:30 | -34.95035 | 158.29605 | 36086 ft | 432 kts | 284° |
| 2026-05-06 03:30 | -34.93808 | 158.22388 | 36085 ft | 432 kts | 284° |
| 2026-05-06 03:31 | -34.92592 | 158.15263 | 36085 ft | 432 kts | 284° |
| 2026-05-06 03:31 | -34.91364 | 158.08093 | 36089 ft | 432 kts | 284° |
| 2026-05-06 03:32 | -34.90132 | 158.00927 | 36091 ft | 432 kts | 284° |
| 2026-05-06 03:32 | -34.88895 | 157.93762 | 36088 ft | 432 kts | 284° |
| 2026-05-06 03:33 | -34.87864 | 157.87806 | 36088 ft | 432 kts | 284° |
| 2026-05-06 03:33 | -34.86416 | 157.79472 | 36094 ft | 432 kts | 284° |
| 2026-05-06 03:34 | -34.85166 | 157.72310 | 36093 ft | 432 kts | 284° |
| 2026-05-06 03:34 | -34.84125 | 157.66363 | 36089 ft | 432 kts | 284° |
| 2026-05-06 03:35 | -34.82868 | 157.59205 | 36087 ft | 432 kts | 284° |
| 2026-05-06 03:35 | -34.81606 | 157.52045 | 36083 ft | 432 kts | 284° |
| 2026-05-06 03:36 | -34.80134 | 157.43732 | 36089 ft | 432 kts | 284° |
| 2026-05-06 03:36 | -34.79070 | 157.37741 | 36086 ft | 432 kts | 284° |
| 2026-05-06 03:37 | -34.77798 | 157.30600 | 36093 ft | 432 kts | 284° |
| 2026-05-06 03:37 | -34.76526 | 157.23490 | 36099 ft | 432 kts | 284° |
| 2026-05-06 03:38 | -34.75246 | 157.16358 | 36094 ft | 432 kts | 284° |
| 2026-05-06 03:38 | -34.73963 | 157.09231 | 36095 ft | 431 kts | 284° |
| 2026-05-06 03:39 | -34.72676 | 157.02111 | 36096 ft | 431 kts | 284° |
| 2026-05-06 03:39 | -34.71384 | 156.94988 | 36096 ft | 431 kts | 284° |
| 2026-05-06 03:40 | -34.70087 | 156.87865 | 36097 ft | 431 kts | 284° |
| 2026-05-06 03:40 | -34.68795 | 156.80793 | 36100 ft | 431 kts | 284° |
| 2026-05-06 03:41 | -34.67491 | 156.73679 | 36098 ft | 431 kts | 284° |
| 2026-05-06 03:41 | -34.66182 | 156.66561 | 36099 ft | 431 kts | 284° |
| 2026-05-06 03:42 | -34.64870 | 156.59455 | 36099 ft | 431 kts | 284° |
| 2026-05-06 03:42 | -34.63562 | 156.52392 | 36101 ft | 431 kts | 284° |
| 2026-05-06 03:43 | -34.62242 | 156.45293 | 36100 ft | 431 kts | 284° |
| 2026-05-06 03:43 | -34.60918 | 156.38192 | 36104 ft | 431 kts | 284° |
| 2026-05-06 03:44 | -34.59588 | 156.31083 | 36100 ft | 431 kts | 284° |
| 2026-05-06 03:44 | -34.58256 | 156.23990 | 36103 ft | 431 kts | 284° |
| 2026-05-06 03:45 | -34.56929 | 156.16948 | 36106 ft | 431 kts | 284° |
| 2026-05-06 03:45 | -34.55590 | 156.09867 | 36107 ft | 431 kts | 284° |
| 2026-05-06 03:46 | -34.54244 | 156.02769 | 36104 ft | 431 kts | 284° |
| 2026-05-06 03:46 | -34.52896 | 155.95685 | 36105 ft | 431 kts | 284° |
| 2026-05-06 03:47 | -34.51545 | 155.88610 | 36105 ft | 431 kts | 284° |
| 2026-05-06 03:47 | -34.50188 | 155.81530 | 36108 ft | 431 kts | 284° |
| 2026-05-06 03:48 | -34.48829 | 155.74457 | 36101 ft | 431 kts | 284° |
| 2026-05-06 03:48 | -34.47472 | 155.67423 | 36103 ft | 431 kts | 284° |
| 2026-05-06 03:49 | -34.46104 | 155.60355 | 36106 ft | 431 kts | 284° |
| 2026-05-06 03:49 | -34.44732 | 155.53287 | 36106 ft | 430 kts | 284° |
| 2026-05-06 03:50 | -34.43357 | 155.46225 | 36105 ft | 430 kts | 284° |
| 2026-05-06 03:50 | -34.41978 | 155.39168 | 36113 ft | 430 kts | 284° |
| 2026-05-06 03:51 | -34.40597 | 155.32125 | 36107 ft | 430 kts | 284° |
| 2026-05-06 03:51 | -34.39219 | 155.25110 | 36113 ft | 430 kts | 284° |
| 2026-05-06 03:52 | -34.37831 | 155.18066 | 36110 ft | 430 kts | 284° |
| 2026-05-06 03:52 | -34.36894 | 155.10897 | 36110 ft | 431 kts | 279° |
| 2026-05-06 03:53 | -34.36181 | 155.03732 | 36117 ft | 431 kts | 279° |
| 2026-05-06 03:53 | -34.35452 | 154.96535 | 36109 ft | 431 kts | 279° |
| 2026-05-06 03:54 | -34.34707 | 154.89335 | 36115 ft | 431 kts | 279° |
| 2026-05-06 03:54 | -34.33955 | 154.82139 | 36109 ft | 431 kts | 279° |
| 2026-05-06 03:55 | -34.33199 | 154.74950 | 36119 ft | 431 kts | 279° |
| 2026-05-06 03:55 | -34.32438 | 154.67756 | 36118 ft | 431 kts | 279° |
| 2026-05-06 03:56 | -34.31674 | 154.60563 | 36119 ft | 431 kts | 279° |
| 2026-05-06 03:56 | -34.30905 | 154.53373 | 36116 ft | 431 kts | 279° |
| 2026-05-06 03:57 | -34.30132 | 154.46185 | 36115 ft | 431 kts | 279° |
| 2026-05-06 03:57 | -34.29359 | 154.39037 | 36120 ft | 431 kts | 279° |
| 2026-05-06 03:58 | -34.28577 | 154.31847 | 36121 ft | 431 kts | 279° |
| 2026-05-06 03:58 | -34.27791 | 154.24653 | 36113 ft | 431 kts | 279° |
| 2026-05-06 03:59 | -34.27002 | 154.17476 | 36118 ft | 431 kts | 279° |
| 2026-05-06 03:59 | -34.26206 | 154.10280 | 36123 ft | 431 kts | 279° |
| 2026-05-06 04:00 | -34.25408 | 154.03097 | 36117 ft | 431 kts | 279° |
| 2026-05-06 04:00 | -34.24610 | 153.95945 | 36116 ft | 431 kts | 279° |
| 2026-05-06 04:01 | -34.23803 | 153.88760 | 36116 ft | 431 kts | 279° |
| 2026-05-06 04:01 | -34.22993 | 153.81554 | 36118 ft | 432 kts | 279° |
| 2026-05-06 04:02 | -34.22187 | 153.74399 | 36116 ft | 431 kts | 279° |
| 2026-05-06 04:02 | -34.21373 | 153.67218 | 36119 ft | 431 kts | 279° |
| 2026-05-06 04:03 | -34.20555 | 153.60047 | 36117 ft | 431 kts | 279° |
| 2026-05-06 04:03 | -34.19734 | 153.52879 | 36119 ft | 430 kts | 279° |
| 2026-05-06 04:04 | -34.18909 | 153.45721 | 36118 ft | 430 kts | 279° |
| 2026-05-06 04:04 | -34.18492 | 153.42117 | 35623 ft | 438 kts | 279° |
| 2026-05-06 04:04 | -34.18069 | 153.38472 | 35118 ft | 436 kts | 279° |
| 2026-05-06 04:05 | -34.17655 | 153.34905 | 34570 ft | 431 kts | 279° |
| 2026-05-06 04:05 | -34.17240 | 153.31341 | 34057 ft | 427 kts | 279° |
| 2026-05-06 04:05 | -34.16827 | 153.27806 | 33478 ft | 422 kts | 279° |
| 2026-05-06 04:05 | -34.16418 | 153.24309 | 32957 ft | 418 kts | 279° |
| 2026-05-06 04:06 | -34.16012 | 153.20853 | 32441 ft | 413 kts | 279° |
| 2026-05-06 04:06 | -34.15609 | 153.17427 | 31965 ft | 409 kts | 279° |
| 2026-05-06 04:06 | -34.15208 | 153.14030 | 31480 ft | 406 kts | 279° |
| 2026-05-06 04:06 | -34.14815 | 153.10713 | 31016 ft | 402 kts | 279° |
| 2026-05-06 04:07 | -34.14415 | 153.07341 | 30539 ft | 399 kts | 279° |
| 2026-05-06 04:07 | -34.14028 | 153.04081 | 30064 ft | 397 kts | 279° |
| 2026-05-06 04:07 | -34.13637 | 153.00791 | 29524 ft | 394 kts | 279° |
| 2026-05-06 04:07 | -34.13247 | 152.97534 | 29037 ft | 390 kts | 279° |
| 2026-05-06 04:08 | -34.12860 | 152.94309 | 28567 ft | 387 kts | 279° |
| 2026-05-06 04:08 | -34.12468 | 152.91101 | 28072 ft | 384 kts | 279° |
| 2026-05-06 04:08 | -34.12078 | 152.87922 | 27607 ft | 381 kts | 279° |
| 2026-05-06 04:08 | -34.11690 | 152.84769 | 27150 ft | 379 kts | 279° |
| 2026-05-06 04:09 | -34.11304 | 152.81636 | 26678 ft | 376 kts | 279° |
| 2026-05-06 04:09 | -34.10920 | 152.78516 | 26218 ft | 374 kts | 279° |
| 2026-05-06 04:09 | -34.10537 | 152.75413 | 25772 ft | 372 kts | 279° |
| 2026-05-06 04:09 | -34.10156 | 152.72336 | 25300 ft | 370 kts | 279° |
| 2026-05-06 04:10 | -34.09776 | 152.69265 | 24864 ft | 369 kts | 279° |
| 2026-05-06 04:10 | -34.09397 | 152.66212 | 24426 ft | 367 kts | 279° |
| 2026-05-06 04:10 | -34.09018 | 152.63160 | 23972 ft | 366 kts | 279° |
| 2026-05-06 04:10 | -34.08645 | 152.60162 | 23493 ft | 366 kts | 279° |
| 2026-05-06 04:11 | -34.08267 | 152.57136 | 22988 ft | 364 kts | 279° |
| 2026-05-06 04:11 | -34.07925 | 152.54120 | 22513 ft | 362 kts | 277° |
| 2026-05-06 04:11 | -34.07642 | 152.51107 | 22064 ft | 360 kts | 277° |
| 2026-05-06 04:11 | -34.07379 | 152.48118 | 21625 ft | 357 kts | 276° |
| 2026-05-06 04:12 | -34.07116 | 152.45136 | 21184 ft | 356 kts | 277° |
| 2026-05-06 04:12 | -34.06849 | 152.42171 | 20735 ft | 354 kts | 277° |
| 2026-05-06 04:12 | -34.06580 | 152.39221 | 20302 ft | 352 kts | 277° |
| 2026-05-06 04:12 | -34.06308 | 152.36288 | 19875 ft | 351 kts | 277° |
| 2026-05-06 04:13 | -34.06038 | 152.33397 | 19442 ft | 350 kts | 277° |
| 2026-05-06 04:13 | -34.05764 | 152.30480 | 19010 ft | 350 kts | 277° |
| 2026-05-06 04:13 | -34.05489 | 152.27568 | 18575 ft | 349 kts | 277° |
| 2026-05-06 04:13 | -34.05214 | 152.24661 | 18092 ft | 349 kts | 277° |
| 2026-05-06 04:14 | -34.04938 | 152.21754 | 17617 ft | 348 kts | 277° |
| 2026-05-06 04:14 | -34.04663 | 152.18856 | 17167 ft | 347 kts | 277° |
| 2026-05-06 04:14 | -34.04387 | 152.15963 | 16725 ft | 346 kts | 277° |
| 2026-05-06 04:14 | -34.04112 | 152.13083 | 16284 ft | 344 kts | 277° |
| 2026-05-06 04:15 | -34.03838 | 152.10214 | 15850 ft | 343 kts | 277° |
| 2026-05-06 04:15 | -34.03564 | 152.07366 | 15422 ft | 342 kts | 277° |
| 2026-05-06 04:15 | -34.03287 | 152.04551 | 14999 ft | 341 kts | 277° |
| 2026-05-06 04:15 | -34.03000 | 152.01714 | 14572 ft | 340 kts | 277° |
| 2026-05-06 04:16 | -34.02711 | 151.98882 | 14144 ft | 340 kts | 277° |
| 2026-05-06 04:16 | -34.02422 | 151.96055 | 13695 ft | 339 kts | 277° |
| 2026-05-06 04:16 | -34.02134 | 151.93238 | 13241 ft | 339 kts | 277° |
| 2026-05-06 04:16 | -34.01845 | 151.90413 | 12788 ft | 337 kts | 277° |
| 2026-05-06 04:17 | -34.01558 | 151.87610 | 12359 ft | 336 kts | 277° |
| 2026-05-06 04:17 | -34.01277 | 151.84856 | 11948 ft | 334 kts | 277° |
| 2026-05-06 04:17 | -34.00990 | 151.82069 | 11526 ft | 333 kts | 277° |
| 2026-05-06 04:17 | -34.00705 | 151.79298 | 11114 ft | 332 kts | 277° |
| 2026-05-06 04:18 | -34.00420 | 151.76540 | 10730 ft | 331 kts | 277° |
| 2026-05-06 04:18 | -34.00142 | 151.73826 | 10588 ft | 321 kts | 277° |
| 2026-05-06 04:18 | -33.99871 | 151.71193 | 10399 ft | 314 kts | 277° |
| 2026-05-06 04:18 | -33.99695 | 151.69475 | 10264 ft | 310 kts | 277° |
| 2026-05-06 04:19 | -33.99432 | 151.66928 | 10131 ft | 302 kts | 277° |
| 2026-05-06 04:19 | -33.99095 | 151.63662 | 9828 ft | 288 kts | 278° |
| 2026-05-06 04:19 | -33.98852 | 151.61306 | 9514 ft | 275 kts | 278° |
| 2026-05-06 04:19 | -33.98620 | 151.59077 | 9167 ft | 270 kts | 278° |
| 2026-05-06 04:20 | -33.98387 | 151.56835 | 8900 ft | 268 kts | 278° |
| 2026-05-06 04:20 | -33.98230 | 151.55336 | 8749 ft | 264 kts | 278° |
| 2026-05-06 04:20 | -33.98006 | 151.53183 | 8540 ft | 260 kts | 278° |
| 2026-05-06 04:20 | -33.97782 | 151.51031 | 8347 ft | 258 kts | 278° |
| 2026-05-06 04:21 | -33.97555 | 151.48868 | 8145 ft | 260 kts | 278° |
| 2026-05-06 04:21 | -33.97327 | 151.46688 | 7947 ft | 263 kts | 278° |
| 2026-05-06 04:21 | -33.97098 | 151.44496 | 7739 ft | 264 kts | 278° |
| 2026-05-06 04:21 | -33.96867 | 151.42298 | 7523 ft | 264 kts | 278° |
| 2026-05-06 04:22 | -33.96639 | 151.40137 | 7332 ft | 263 kts | 278° |
| 2026-05-06 04:22 | -33.96410 | 151.37953 | 7122 ft | 263 kts | 278° |
| 2026-05-06 04:22 | -33.96184 | 151.35772 | 6923 ft | 262 kts | 278° |
| 2026-05-06 04:23 | -33.95742 | 151.31451 | 6411 ft | 257 kts | 277° |
| 2026-05-06 04:23 | -33.95522 | 151.29319 | 6104 ft | 256 kts | 277° |
| 2026-05-06 04:23 | -33.95304 | 151.27192 | 5807 ft | 255 kts | 277° |
| 2026-05-06 04:23 | -33.95086 | 151.25073 | 5523 ft | 254 kts | 277° |
| 2026-05-06 04:24 | -33.94868 | 151.22970 | 5250 ft | 252 kts | 277° |
| 2026-05-06 04:24 | -33.94652 | 151.20885 | 5056 ft | 247 kts | 277° |
| 2026-05-06 04:24 | -33.94442 | 151.18858 | 5002 ft | 242 kts | 277° |
| 2026-05-06 04:24 | -33.94154 | 151.16872 | 4995 ft | 247 kts | 290° |
| 2026-05-06 04:25 | -33.93237 | 151.15094 | 5010 ft | 255 kts | 309° |
| 2026-05-06 04:25 | -33.92048 | 151.13493 | 4993 ft | 256 kts | 312° |
| 2026-05-06 04:25 | -33.90842 | 151.11951 | 4983 ft | 249 kts | 312° |
| 2026-05-06 04:25 | -33.89651 | 151.10444 | 4990 ft | 248 kts | 313° |
| 2026-05-06 04:26 | -33.88461 | 151.08943 | 4961 ft | 249 kts | 313° |
| 2026-05-06 04:26 | -33.87246 | 151.07430 | 4625 ft | 251 kts | 316° |
| 2026-05-06 04:26 | -33.85748 | 151.06366 | 4219 ft | 253 kts | 340° |
| 2026-05-06 04:26 | -33.84062 | 151.05752 | 3885 ft | 254 kts | 342° |
| 2026-05-06 04:27 | -33.82393 | 151.05158 | 3523 ft | 252 kts | 342° |
| 2026-05-06 04:27 | -33.80735 | 151.04566 | 3120 ft | 244 kts | 343° |
| 2026-05-06 04:27 | -33.79161 | 151.04000 | 2991 ft | 234 kts | 342° |
| 2026-05-06 04:27 | -33.77762 | 151.03495 | 2963 ft | 220 kts | 343° |
| 2026-05-06 04:28 | -33.76294 | 151.02965 | 2986 ft | 214 kts | 342° |
| 2026-05-06 04:28 | -33.74953 | 151.02479 | 3009 ft | 217 kts | 342° |
| 2026-05-06 04:28 | -33.73495 | 151.02110 | 2960 ft | 211 kts | 4° |
| 2026-05-06 04:28 | -33.72145 | 151.02683 | 3039 ft | 210 kts | 38° |
| 2026-05-06 04:29 | -33.71287 | 151.04092 | 3010 ft | 215 kts | 67° |
| 2026-05-06 04:29 | -33.70781 | 151.05800 | 3013 ft | 220 kts | 72° |
| 2026-05-06 04:29 | -33.70366 | 151.07546 | 2970 ft | 214 kts | 83° |
| 2026-05-06 04:29 | -33.70609 | 151.09250 | 2993 ft | 209 kts | 120° |
| 2026-05-06 04:30 | -33.71598 | 151.10539 | 3014 ft | 213 kts | 142° |
| 2026-05-06 04:30 | -33.72796 | 151.11613 | 2999 ft | 217 kts | 152° |
| 2026-05-06 04:30 | -33.74206 | 151.12261 | 3006 ft | 215 kts | 165° |
| 2026-05-06 04:30 | -33.75644 | 151.12684 | 2995 ft | 211 kts | 168° |
| 2026-05-06 04:31 | -33.77047 | 151.13046 | 2960 ft | 200 kts | 169° |
| 2026-05-06 04:31 | -33.78375 | 151.13386 | 2948 ft | 194 kts | 169° |
| 2026-05-06 04:31 | -33.79689 | 151.13725 | 2686 ft | 190 kts | 169° |
| 2026-05-06 04:31 | -33.80946 | 151.14050 | 2411 ft | 177 kts | 169° |
| 2026-05-06 04:32 | -33.82096 | 151.14348 | 2175 ft | 161 kts | 169° |
| 2026-05-06 04:32 | -33.83193 | 151.14632 | 2007 ft | 167 kts | 169° |
| 2026-05-06 04:32 | -33.84333 | 151.14928 | 1771 ft | 167 kts | 168° |
| 2026-05-06 04:32 | -33.85435 | 151.15213 | 1529 ft | 156 kts | 168° |
| 2026-05-06 04:33 | -33.86447 | 151.15476 | 1354 ft | 145 kts | 169° |
| 2026-05-06 04:33 | -33.87448 | 151.15736 | 1162 ft | 149 kts | 168° |
| 2026-05-06 04:33 | -33.88461 | 151.15998 | 951 ft | 148 kts | 168° |
| 2026-05-06 04:33 | -33.89450 | 151.16255 | 750 ft | 143 kts | 167° |
| 2026-05-06 04:34 | -33.90418 | 151.16507 | 564 ft | 142 kts | 167° |
| 2026-05-06 04:34 | -33.91388 | 151.16758 | 383 ft | 143 kts | 168° |
| 2026-05-06 04:34 | -33.92372 | 151.17009 | 194 ft | 145 kts | 167° |
| 2026-05-06 04:34 | -33.93344 | 151.17262 | 40 ft | 140 kts | 167° |
| 2026-05-06 04:35 | -33.94193 | 151.17486 | 34 ft | 103 kts | 168° |
| 2026-05-06 04:35 | -33.94715 | 151.17619 | 34 ft | 58 kts | 169° |
| 2026-05-06 04:35 | -33.95018 | 151.17642 | 33 ft | 27 kts | 187° |
| 2026-05-06 04:35 | -33.95098 | 151.17625 | 33 ft | 0 kts | 192° |
| 2026-05-06 04:36 | -33.95133 | 151.17606 | 33 ft | 12 kts | 218° |
| 2026-05-06 04:37 | -33.95129 | 151.17532 | 33 ft | 10 kts | 326° |
| 2026-05-06 04:37 | -33.95064 | 151.17508 | 34 ft | 10 kts | 348° |
| 2026-05-06 04:37 | -33.94977 | 151.17486 | 34 ft | 14 kts | 348° |
| 2026-05-06 04:37 | -33.94881 | 151.17461 | 34 ft | 14 kts | 348° |
| 2026-05-06 04:38 | -33.94783 | 151.17436 | 35 ft | 17 kts | 348° |
| 2026-05-06 04:38 | -33.94667 | 151.17406 | 35 ft | 14 kts | 350° |
| 2026-05-06 04:38 | -33.94518 | 151.17364 | 35 ft | 29 kts | 348° |
| 2026-05-06 04:38 | -33.94343 | 151.17321 | 35 ft | 27 kts | 348° |
| 2026-05-06 04:39 | -33.94152 | 151.17272 | 33 ft | 29 kts | 348° |
| 2026-05-06 04:39 | -33.94021 | 151.17238 | 34 ft | 12 kts | 347° |
| 2026-05-06 04:39 | -33.93984 | 151.17172 | 34 ft | 11 kts | 260° |
| 2026-05-06 04:39 | -33.94005 | 151.17079 | 34 ft | 15 kts | 254° |
| 2026-05-06 04:40 | -33.94043 | 151.16917 | 35 ft | 22 kts | 253° |
| 2026-05-06 04:40 | -33.94077 | 151.16773 | 35 ft | 13 kts | 254° |
| 2026-05-06 04:40 | -33.94090 | 151.16717 | 35 ft | 8 kts | 254° |
| 2026-05-06 04:40 | -33.94094 | 151.16657 | 35 ft | 5 kts | 294° |
| 2026-05-06 04:41 | -33.94060 | 151.16633 | 35 ft | 6 kts | 341° |
| 2026-05-06 04:41 | -33.94028 | 151.16621 | 35 ft | 3 kts | 343° |
| 2026-05-06 04:41 | -33.94019 | 151.16618 | 35 ft | 1 kts | 344° |
| 2026-05-06 04:41 | -33.94015 | 151.16617 | 35 ft | 0 kts | 344° |